sensor_id;sensor_type;location;lat;lon;timestamp;P1;P2;P0
24012;PMS7003;12220;50.194;18.948;2022-07-23T00:00:29;10;10;9
24012;PMS7003;12220;50.194;18.948;2022-07-23T00:02:40;10;9;7
24012;PMS7003;12220;50.194;18.948;2022-07-23T00:04:42;9;8;7
24012;PMS7003;12220;50.194;18.948;2022-07-23T00:06:43;13;13;11
24012;PMS7003;12220;50.194;18.948;2022-07-23T00:08:44;15;13;10
24012;PMS7003;12220;50.194;18.948;2022-07-23T00:10:55;11;11;9
24012;PMS7003;12220;50.194;18.948;2022-07-23T00:12:56;15;15;11
24012;PMS7003;12220;50.194;18.948;2022-07-23T00:14:57;14;14;11
24012;PMS7003;12220;50.194;18.948;2022-07-23T00:17:00;18;16;12
24012;PMS7003;12220;50.194;18.948;2022-07-23T00:19:10;15;13;12
24012;PMS7003;12220;50.194;18.948;2022-07-23T00:21:11;12;12;10
24012;PMS7003;12220;50.194;18.948;2022-07-23T00:23:12;10;10;9
24012;PMS7003;12220;50.194;18.948;2022-07-23T00:25:14;11;11;9
24012;PMS7003;12220;50.194;18.948;2022-07-23T00:27:25;12;12;10
24012;PMS7003;12220;50.194;18.948;2022-07-23T00:29:26;11;10;8
24012;PMS7003;12220;50.194;18.948;2022-07-23T00:31:28;14;12;10
24012;PMS7003;12220;50.194;18.948;2022-07-23T00:33:30;14;13;9
24012;PMS7003;12220;50.194;18.948;2022-07-23T00:35:40;8;8;7
24012;PMS7003;12220;50.194;18.948;2022-07-23T00:37:42;10;10;8
24012;PMS7003;12220;50.194;18.948;2022-07-23T00:39:43;14;14;11
24012;PMS7003;12220;50.194;18.948;2022-07-23T00:41:44;14;10;9
24012;PMS7003;12220;50.194;18.948;2022-07-23T00:43:54;11;11;8
24012;PMS7003;12220;50.194;18.948;2022-07-23T00:45:56;14;13;9
24012;PMS7003;12220;50.194;18.948;2022-07-23T00:47:57;13;12;10
24012;PMS7003;12220;50.194;18.948;2022-07-23T00:49:59;12;11;10
24012;PMS7003;12220;50.194;18.948;2022-07-23T00:52:09;10;10;8
24012;PMS7003;12220;50.194;18.948;2022-07-23T00:54:10;15;15;11
24012;PMS7003;12220;50.194;18.948;2022-07-23T00:56:12;13;12;10
24012;PMS7003;12220;50.194;18.948;2022-07-23T00:58:14;17;17;12
24012;PMS7003;12220;50.194;18.948;2022-07-23T01:00:24;14;13;11
24012;PMS7003;12220;50.194;18.948;2022-07-23T01:02:28;17;16;13
24012;PMS7003;12220;50.194;18.948;2022-07-23T01:04:29;15;15;12
24012;PMS7003;12220;50.194;18.948;2022-07-23T01:06:34;13;13;11
24012;PMS7003;12220;50.194;18.948;2022-07-23T01:08:39;12;12;10
24012;PMS7003;12220;50.194;18.948;2022-07-23T01:10:41;10;10;8
24012;PMS7003;12220;50.194;18.948;2022-07-23T01:12:43;13;13;11
24012;PMS7003;12220;50.194;18.948;2022-07-23T01:14:44;12;12;9
24012;PMS7003;12220;50.194;18.948;2022-07-23T01:16:54;12;12;10
24012;PMS7003;12220;50.194;18.948;2022-07-23T01:18:55;12;12;8
24012;PMS7003;12220;50.194;18.948;2022-07-23T01:20:58;14;14;10
24012;PMS7003;12220;50.194;18.948;2022-07-23T01:23:00;14;14;11
24012;PMS7003;12220;50.194;18.948;2022-07-23T01:25:08;9;9;9
24012;PMS7003;12220;50.194;18.948;2022-07-23T01:27:10;12;12;9
24012;PMS7003;12220;50.194;18.948;2022-07-23T01:29:13;14;13;11
24012;PMS7003;12220;50.194;18.948;2022-07-23T01:31:15;12;12;10
24012;PMS7003;12220;50.194;18.948;2022-07-23T01:33:23;15;15;11
24012;PMS7003;12220;50.194;18.948;2022-07-23T01:35:25;17;13;10
24012;PMS7003;12220;50.194;18.948;2022-07-23T01:37:29;12;12;10
24012;PMS7003;12220;50.194;18.948;2022-07-23T01:39:30;12;11;8
24012;PMS7003;12220;50.194;18.948;2022-07-23T01:41:38;9;9;8
24012;PMS7003;12220;50.194;18.948;2022-07-23T01:43:40;11;9;7
24012;PMS7003;12220;50.194;18.948;2022-07-23T01:45:42;12;11;9
24012;PMS7003;12220;50.194;18.948;2022-07-23T01:47:45;11;11;8
24012;PMS7003;12220;50.194;18.948;2022-07-23T01:49:58;15;15;11
24012;PMS7003;12220;50.194;18.948;2022-07-23T01:52:00;19;19;13
24012;PMS7003;12220;50.194;18.948;2022-07-23T01:54:06;14;13;11
24012;PMS7003;12220;50.194;18.948;2022-07-23T01:56:07;18;16;12
24012;PMS7003;12220;50.194;18.948;2022-07-23T01:58:15;18;15;13
24012;PMS7003;12220;50.194;18.948;2022-07-23T02:00:18;13;13;12
24012;PMS7003;12220;50.194;18.948;2022-07-23T02:02:23;14;13;11
24012;PMS7003;12220;50.194;18.948;2022-07-23T02:04:25;16;14;11
24012;PMS7003;12220;50.194;18.948;2022-07-23T02:06:32;14;14;12
24012;PMS7003;12220;50.194;18.948;2022-07-23T02:08:34;10;10;8
24012;PMS7003;12220;50.194;18.948;2022-07-23T02:10:35;14;14;11
24012;PMS7003;12220;50.194;18.948;2022-07-23T02:12:36;13;13;11
24012;PMS7003;12220;50.194;18.948;2022-07-23T02:14:44;18;13;10
24012;PMS7003;12220;50.194;18.948;2022-07-23T02:16:45;10;10;8
24012;PMS7003;12220;50.194;18.948;2022-07-23T02:18:47;10;10;9
24012;PMS7003;12220;50.194;18.948;2022-07-23T02:20:48;10;10;9
24012;PMS7003;12220;50.194;18.948;2022-07-23T02:22:59;10;10;7
24012;PMS7003;12220;50.194;18.948;2022-07-23T02:25:00;13;13;11
24012;PMS7003;12220;50.194;18.948;2022-07-23T02:27:02;12;12;7
24012;PMS7003;12220;50.194;18.948;2022-07-23T02:29:03;13;13;10
24012;PMS7003;12220;50.194;18.948;2022-07-23T02:31:14;13;13;10
24012;PMS7003;12220;50.194;18.948;2022-07-23T02:33:16;10;9;7
24012;PMS7003;12220;50.194;18.948;2022-07-23T02:35:17;12;12;8
24012;PMS7003;12220;50.194;18.948;2022-07-23T02:37:19;13;13;10
24012;PMS7003;12220;50.194;18.948;2022-07-23T02:39:29;15;14;11
24012;PMS7003;12220;50.194;18.948;2022-07-23T02:41:30;13;12;9
24012;PMS7003;12220;50.194;18.948;2022-07-23T02:43:31;14;13;11
24012;PMS7003;12220;50.194;18.948;2022-07-23T02:45:33;14;14;11
24012;PMS7003;12220;50.194;18.948;2022-07-23T02:47:44;16;15;10
24012;PMS7003;12220;50.194;18.948;2022-07-23T02:49:45;13;13;10
24012;PMS7003;12220;50.194;18.948;2022-07-23T02:51:47;14;13;10
24012;PMS7003;12220;50.194;18.948;2022-07-23T02:53:48;15;13;11
24012;PMS7003;12220;50.194;18.948;2022-07-23T02:55:58;15;13;10
24012;PMS7003;12220;50.194;18.948;2022-07-23T02:58:00;14;14;11
24012;PMS7003;12220;50.194;18.948;2022-07-23T03:00:01;13;13;11
24012;PMS7003;12220;50.194;18.948;2022-07-23T03:02:04;15;15;11
24012;PMS7003;12220;50.194;18.948;2022-07-23T03:04:13;16;15;12
24012;PMS7003;12220;50.194;18.948;2022-07-23T03:06:15;11;10;9
24012;PMS7003;12220;50.194;18.948;2022-07-23T03:08:16;12;12;10
24012;PMS7003;12220;50.194;18.948;2022-07-23T03:10:17;11;11;9
24012;PMS7003;12220;50.194;18.948;2022-07-23T03:12:28;13;13;10
24012;PMS7003;12220;50.194;18.948;2022-07-23T03:14:31;17;14;10
24012;PMS7003;12220;50.194;18.948;2022-07-23T03:16:32;11;11;9
24012;PMS7003;12220;50.194;18.948;2022-07-23T03:18:36;11;11;8
24012;PMS7003;12220;50.194;18.948;2022-07-23T03:20:43;12;12;10
24012;PMS7003;12220;50.194;18.948;2022-07-23T03:22:44;10;8;6
24012;PMS7003;12220;50.194;18.948;2022-07-23T03:24:47;10;10;7
24012;PMS7003;12220;50.194;18.948;2022-07-23T03:26:54;12;12;11
24012;PMS7003;12220;50.194;18.948;2022-07-23T03:28:58;10;10;7
24012;PMS7003;12220;50.194;18.948;2022-07-23T03:31:01;12;12;10
24012;PMS7003;12220;50.194;18.948;2022-07-23T03:33:02;11;11;10
24012;PMS7003;12220;50.194;18.948;2022-07-23T03:35:04;14;14;11
24012;PMS7003;12220;50.194;18.948;2022-07-23T03:37:13;12;12;10
24012;PMS7003;12220;50.194;18.948;2022-07-23T03:39:16;12;12;9
24012;PMS7003;12220;50.194;18.948;2022-07-23T03:41:21;14;13;11
24012;PMS7003;12220;50.194;18.948;2022-07-23T03:43:24;15;14;11
24012;PMS7003;12220;50.194;18.948;2022-07-23T03:45:28;15;14;12
24012;PMS7003;12220;50.194;18.948;2022-07-23T03:47:31;12;11;9
24012;PMS7003;12220;50.194;18.948;2022-07-23T03:49:32;16;16;13
24012;PMS7003;12220;50.194;18.948;2022-07-23T03:51:35;14;14;11
24012;PMS7003;12220;50.194;18.948;2022-07-23T03:53:42;13;11;10
24012;PMS7003;12220;50.194;18.948;2022-07-23T03:55:46;15;14;12
24012;PMS7003;12220;50.194;18.948;2022-07-23T03:57:48;15;14;12
24012;PMS7003;12220;50.194;18.948;2022-07-23T03:59:49;13;13;10
24012;PMS7003;12220;50.194;18.948;2022-07-23T04:01:57;13;13;11
24012;PMS7003;12220;50.194;18.948;2022-07-23T04:03:59;17;15;12
24012;PMS7003;12220;50.194;18.948;2022-07-23T04:06:00;15;11;11
24012;PMS7003;12220;50.194;18.948;2022-07-23T04:08:01;12;12;10
24012;PMS7003;12220;50.194;18.948;2022-07-23T04:10:12;10;10;8
24012;PMS7003;12220;50.194;18.948;2022-07-23T04:12:14;13;13;10
24012;PMS7003;12220;50.194;18.948;2022-07-23T04:14:15;17;17;13
24012;PMS7003;12220;50.194;18.948;2022-07-23T04:16:17;13;13;11
24012;PMS7003;12220;50.194;18.948;2022-07-23T04:18:28;13;12;10
24012;PMS7003;12220;50.194;18.948;2022-07-23T04:20:29;14;13;10
24012;PMS7003;12220;50.194;18.948;2022-07-23T04:22:30;15;14;11
24012;PMS7003;12220;50.194;18.948;2022-07-23T04:24:32;12;12;10
24012;PMS7003;12220;50.194;18.948;2022-07-23T04:26:42;11;11;9
24012;PMS7003;12220;50.194;18.948;2022-07-23T04:28:44;10;10;9
24012;PMS7003;12220;50.194;18.948;2022-07-23T04:30:45;10;10;8
24012;PMS7003;12220;50.194;18.948;2022-07-23T04:32:46;14;14;11
24012;PMS7003;12220;50.194;18.948;2022-07-23T04:34:57;12;12;10
24012;PMS7003;12220;50.194;18.948;2022-07-23T04:36:58;14;14;9
24012;PMS7003;12220;50.194;18.948;2022-07-23T04:38:59;14;14;10
24012;PMS7003;12220;50.194;18.948;2022-07-23T04:41:00;15;15;12
24012;PMS7003;12220;50.194;18.948;2022-07-23T04:43:12;11;11;9
24012;PMS7003;12220;50.194;18.948;2022-07-23T04:45:13;11;10;7
24012;PMS7003;12220;50.194;18.948;2022-07-23T04:47:14;12;12;11
24012;PMS7003;12220;50.194;18.948;2022-07-23T04:49:18;13;13;10
24012;PMS7003;12220;50.194;18.948;2022-07-23T04:51:27;14;14;10
24012;PMS7003;12220;50.194;18.948;2022-07-23T04:53:29;17;17;15
24012;PMS7003;12220;50.194;18.948;2022-07-23T04:55:30;12;12;9
24012;PMS7003;12220;50.194;18.948;2022-07-23T04:57:32;12;11;8
24012;PMS7003;12220;50.194;18.948;2022-07-23T04:59:44;18;15;11
24012;PMS7003;12220;50.194;18.948;2022-07-23T05:01:46;11;11;10
24012;PMS7003;12220;50.194;18.948;2022-07-23T05:05:01;13;13;10
24012;PMS7003;12220;50.194;18.948;2022-07-23T05:07:02;12;11;8
24012;PMS7003;12220;50.194;18.948;2022-07-23T05:09:03;16;16;12
24012;PMS7003;12220;50.194;18.948;2022-07-23T05:11:05;14;14;12
24012;PMS7003;12220;50.194;18.948;2022-07-23T05:13:06;20;20;14
24012;PMS7003;12220;50.194;18.948;2022-07-23T05:15:07;18;16;13
24012;PMS7003;12220;50.194;18.948;2022-07-23T05:17:11;17;13;11
24012;PMS7003;12220;50.194;18.948;2022-07-23T05:19:15;18;16;13
24012;PMS7003;12220;50.194;18.948;2022-07-23T05:21:21;16;16;13
24012;PMS7003;12220;50.194;18.948;2022-07-23T05:23:22;16;16;14
24012;PMS7003;12220;50.194;18.948;2022-07-23T05:25:26;13;12;10
24012;PMS7003;12220;50.194;18.948;2022-07-23T05:27:27;28;25;17
24012;PMS7003;12220;50.194;18.948;2022-07-23T05:29:29;20;18;15
24012;PMS7003;12220;50.194;18.948;2022-07-23T05:31:30;19;18;16
24012;PMS7003;12220;50.194;18.948;2022-07-23T05:33:40;23;23;16
24012;PMS7003;12220;50.194;18.948;2022-07-23T05:35:42;23;23;15
24012;PMS7003;12220;50.194;18.948;2022-07-23T05:37:43;24;23;18
24012;PMS7003;12220;50.194;18.948;2022-07-23T05:39:45;20;20;15
24012;PMS7003;12220;50.194;18.948;2022-07-23T05:41:55;15;14;12
24012;PMS7003;12220;50.194;18.948;2022-07-23T05:43:57;20;19;14
24012;PMS7003;12220;50.194;18.948;2022-07-23T05:45:58;23;21;16
24012;PMS7003;12220;50.194;18.948;2022-07-23T05:47:59;26;25;19
24012;PMS7003;12220;50.194;18.948;2022-07-23T05:50:11;21;21;16
24012;PMS7003;12220;50.194;18.948;2022-07-23T05:52:13;22;22;17
24012;PMS7003;12220;50.194;18.948;2022-07-23T05:54:14;23;22;15
24012;PMS7003;12220;50.194;18.948;2022-07-23T05:56:18;21;19;16
24012;PMS7003;12220;50.194;18.948;2022-07-23T05:58:25;24;23;16
24012;PMS7003;12220;50.194;18.948;2022-07-23T06:00:29;29;27;19
24012;PMS7003;12220;50.194;18.948;2022-07-23T06:02:30;21;21;17
24012;PMS7003;12220;50.194;18.948;2022-07-23T06:04:32;22;22;18
24012;PMS7003;12220;50.194;18.948;2022-07-23T06:06:40;30;28;20
24012;PMS7003;12220;50.194;18.948;2022-07-23T06:08:41;25;25;17
24012;PMS7003;12220;50.194;18.948;2022-07-23T06:10:42;26;24;20
24012;PMS7003;12220;50.194;18.948;2022-07-23T06:12:44;30;29;21
24012;PMS7003;12220;50.194;18.948;2022-07-23T06:14:55;30;28;21
24012;PMS7003;12220;50.194;18.948;2022-07-23T06:16:56;31;30;21
24012;PMS7003;12220;50.194;18.948;2022-07-23T06:18:57;29;27;20
24012;PMS7003;12220;50.194;18.948;2022-07-23T06:20:58;30;30;20
24012;PMS7003;12220;50.194;18.948;2022-07-23T06:23:10;30;30;21
24012;PMS7003;12220;50.194;18.948;2022-07-23T06:25:13;30;27;19
24012;PMS7003;12220;50.194;18.948;2022-07-23T06:27:17;25;24;19
24012;PMS7003;12220;50.194;18.948;2022-07-23T06:29:21;31;24;18
24012;PMS7003;12220;50.194;18.948;2022-07-23T06:31:24;25;22;19
24012;PMS7003;12220;50.194;18.948;2022-07-23T06:33:26;28;26;21
24012;PMS7003;12220;50.194;18.948;2022-07-23T06:35:27;36;31;23
24012;PMS7003;12220;50.194;18.948;2022-07-23T06:37:28;30;29;20
24012;PMS7003;12220;50.194;18.948;2022-07-23T06:39:39;27;26;20
24012;PMS7003;12220;50.194;18.948;2022-07-23T06:41:49;31;28;21
24012;PMS7003;12220;50.194;18.948;2022-07-23T06:43:50;30;27;20
24012;PMS7003;12220;50.194;18.948;2022-07-23T06:45:51;26;25;18
24012;PMS7003;12220;50.194;18.948;2022-07-23T06:47:56;28;28;21
24012;PMS7003;12220;50.194;18.948;2022-07-23T06:50:00;32;30;22
24012;PMS7003;12220;50.194;18.948;2022-07-23T06:52:01;35;30;22
24012;PMS7003;12220;50.194;18.948;2022-07-23T06:54:02;27;27;20
24012;PMS7003;12220;50.194;18.948;2022-07-23T06:56:10;26;26;20
24012;PMS7003;12220;50.194;18.948;2022-07-23T06:58:11;35;31;22
24012;PMS7003;12220;50.194;18.948;2022-07-23T07:00:14;36;32;23
24012;PMS7003;12220;50.194;18.948;2022-07-23T07:02:16;26;25;19
24012;PMS7003;12220;50.194;18.948;2022-07-23T07:04:24;28;28;21
24012;PMS7003;12220;50.194;18.948;2022-07-23T07:06:26;25;25;19
24012;PMS7003;12220;50.194;18.948;2022-07-23T07:08:27;28;28;18
24012;PMS7003;12220;50.194;18.948;2022-07-23T07:10:28;32;30;23
24012;PMS7003;12220;50.194;18.948;2022-07-23T07:12:39;34;29;23
24012;PMS7003;12220;50.194;18.948;2022-07-23T07:14:40;32;31;23
24012;PMS7003;12220;50.194;18.948;2022-07-23T07:16:42;30;29;22
24012;PMS7003;12220;50.194;18.948;2022-07-23T07:18:43;30;30;22
24012;PMS7003;12220;50.194;18.948;2022-07-23T07:20:54;26;26;20
24012;PMS7003;12220;50.194;18.948;2022-07-23T07:22:55;29;27;21
24012;PMS7003;12220;50.194;18.948;2022-07-23T07:25:00;26;25;19
24012;PMS7003;12220;50.194;18.948;2022-07-23T07:27:01;19;19;16
24012;PMS7003;12220;50.194;18.948;2022-07-23T07:29:09;26;23;19
24012;PMS7003;12220;50.194;18.948;2022-07-23T07:31:10;25;24;18
24012;PMS7003;12220;50.194;18.948;2022-07-23T07:33:11;22;20;17
24012;PMS7003;12220;50.194;18.948;2022-07-23T07:35:15;24;24;18
24012;PMS7003;12220;50.194;18.948;2022-07-23T07:37:25;21;21;18
24012;PMS7003;12220;50.194;18.948;2022-07-23T07:39:26;17;17;12
24012;PMS7003;12220;50.194;18.948;2022-07-23T07:41:27;26;25;19
24012;PMS7003;12220;50.194;18.948;2022-07-23T07:43:29;26;23;19
24012;PMS7003;12220;50.194;18.948;2022-07-23T07:45:38;34;32;22
24012;PMS7003;12220;50.194;18.948;2022-07-23T07:47:40;28;28;21
24012;PMS7003;12220;50.194;18.948;2022-07-23T07:49:42;37;31;21
24012;PMS7003;12220;50.194;18.948;2022-07-23T07:51:43;35;32;24
24012;PMS7003;12220;50.194;18.948;2022-07-23T07:53:53;27;27;21
24012;PMS7003;12220;50.194;18.948;2022-07-23T07:55:55;26;26;19
24012;PMS7003;12220;50.194;18.948;2022-07-23T07:57:56;32;31;21
24012;PMS7003;12220;50.194;18.948;2022-07-23T07:59:58;28;25;19
24012;PMS7003;12220;50.194;18.948;2022-07-23T08:02:08;24;24;19
24012;PMS7003;12220;50.194;18.948;2022-07-23T08:04:09;26;26;18
24012;PMS7003;12220;50.194;18.948;2022-07-23T08:06:11;26;26;19
24012;PMS7003;12220;50.194;18.948;2022-07-23T08:08:12;33;29;21
24012;PMS7003;12220;50.194;18.948;2022-07-23T08:10:23;24;24;17
24012;PMS7003;12220;50.194;18.948;2022-07-23T08:12:25;22;22;18
24012;PMS7003;12220;50.194;18.948;2022-07-23T08:14:26;29;26;20
24012;PMS7003;12220;50.194;18.948;2022-07-23T08:16:28;26;25;19
24012;PMS7003;12220;50.194;18.948;2022-07-23T08:18:38;25;21;16
24012;PMS7003;12220;50.194;18.948;2022-07-23T08:20:39;25;25;20
24012;PMS7003;12220;50.194;18.948;2022-07-23T08:24:55;28;23;17
24012;PMS7003;12220;50.194;18.948;2022-07-23T08:26:57;35;32;20
24012;PMS7003;12220;50.194;18.948;2022-07-23T08:29:01;31;29;21
24012;PMS7003;12220;50.194;18.948;2022-07-23T08:31:02;29;28;20
24012;PMS7003;12220;50.194;18.948;2022-07-23T08:33:07;27;27;20
24012;PMS7003;12220;50.194;18.948;2022-07-23T08:35:14;22;22;18
24012;PMS7003;12220;50.194;18.948;2022-07-23T08:37:15;29;27;19
24012;PMS7003;12220;50.194;18.948;2022-07-23T08:39:16;32;29;20
24012;PMS7003;12220;50.194;18.948;2022-07-23T08:41:17;24;23;16
24012;PMS7003;12220;50.194;18.948;2022-07-23T08:43:23;30;28;20
24012;PMS7003;12220;50.194;18.948;2022-07-23T08:45:26;29;29;20
24012;PMS7003;12220;50.194;18.948;2022-07-23T08:47:28;20;20;18
24012;PMS7003;12220;50.194;18.948;2022-07-23T08:49:30;17;17;14
24012;PMS7003;12220;50.194;18.948;2022-07-23T08:51:37;23;22;17
24012;PMS7003;12220;50.194;18.948;2022-07-23T08:53:38;24;24;18
24012;PMS7003;12220;50.194;18.948;2022-07-23T08:55:45;22;21;16
24012;PMS7003;12220;50.194;18.948;2022-07-23T08:57:48;17;17;14
24012;PMS7003;12220;50.194;18.948;2022-07-23T08:59:52;17;17;13
24012;PMS7003;12220;50.194;18.948;2022-07-23T09:01:53;18;17;15
24012;PMS7003;12220;50.194;18.948;2022-07-23T09:03:55;21;20;17
24012;PMS7003;12220;50.194;18.948;2022-07-23T09:05:57;22;22;15
24012;PMS7003;12220;50.194;18.948;2022-07-23T09:10:15;21;21;16
24012;PMS7003;12220;50.194;18.948;2022-07-23T09:12:17;23;21;16
24012;PMS7003;12220;50.194;18.948;2022-07-23T09:14:24;21;21;19
24012;PMS7003;12220;50.194;18.948;2022-07-23T09:16:31;35;31;21
24012;PMS7003;12220;50.194;18.948;2022-07-23T09:18:46;45;33;24
24012;PMS7003;12220;50.194;18.948;2022-07-23T09:20:49;30;28;20
24012;PMS7003;12220;50.194;18.948;2022-07-23T09:22:57;26;25;18
24012;PMS7003;12220;50.194;18.948;2022-07-23T09:27:10;22;19;16
24012;PMS7003;12220;50.194;18.948;2022-07-23T09:31:22;19;19;16
24012;PMS7003;12220;50.194;18.948;2022-07-23T09:33:25;19;19;15
24012;PMS7003;12220;50.194;18.948;2022-07-23T09:38:00;12;12;11
24012;PMS7003;12220;50.194;18.948;2022-07-23T09:40:09;16;15;13
24012;PMS7003;12220;50.194;18.948;2022-07-23T09:42:17;14;12;11
24012;PMS7003;12220;50.194;18.948;2022-07-23T09:44:20;14;14;11
24012;PMS7003;12220;50.194;18.948;2022-07-23T09:46:26;15;15;11
24012;PMS7003;12220;50.194;18.948;2022-07-23T09:48:28;14;14;13
24012;PMS7003;12220;50.194;18.948;2022-07-23T09:50:29;18;18;14
24012;PMS7003;12220;50.194;18.948;2022-07-23T09:52:34;13;13;11
24012;PMS7003;12220;50.194;18.948;2022-07-23T09:54:42;11;11;8
24012;PMS7003;12220;50.194;18.948;2022-07-23T09:56:46;9;9;7
24012;PMS7003;12220;50.194;18.948;2022-07-23T09:58:49;13;12;11
24012;PMS7003;12220;50.194;18.948;2022-07-23T10:01:04;12;9;8
24012;PMS7003;12220;50.194;18.948;2022-07-23T10:03:08;9;9;8
24012;PMS7003;12220;50.194;18.948;2022-07-23T10:05:11;14;12;10
24012;PMS7003;12220;50.194;18.948;2022-07-23T10:07:17;11;11;10
24012;PMS7003;12220;50.194;18.948;2022-07-23T10:09:22;9;9;7
24012;PMS7003;12220;50.194;18.948;2022-07-23T10:11:30;8;8;6
24012;PMS7003;12220;50.194;18.948;2022-07-23T10:13:33;10;10;9
24012;PMS7003;12220;50.194;18.948;2022-07-23T10:15:50;11;10;9
24012;PMS7003;12220;50.194;18.948;2022-07-23T10:17:52;10;10;10
24012;PMS7003;12220;50.194;18.948;2022-07-23T10:19:53;6;6;6
24012;PMS7003;12220;50.194;18.948;2022-07-23T10:21:57;14;14;11
24012;PMS7003;12220;50.194;18.948;2022-07-23T10:26:51;17;17;13
24012;PMS7003;12220;50.194;18.948;2022-07-23T10:31:56;10;10;8
24012;PMS7003;12220;50.194;18.948;2022-07-23T10:33:32;12;12;10
24012;PMS7003;12220;50.194;18.948;2022-07-23T10:38:13;14;14;13
24012;PMS7003;12220;50.194;18.948;2022-07-23T10:40:22;13;13;12
24012;PMS7003;12220;50.194;18.948;2022-07-23T10:42:24;13;12;10
24012;PMS7003;12220;50.194;18.948;2022-07-23T10:51:19;14;14;12
24012;PMS7003;12220;50.194;18.948;2022-07-23T10:53:21;17;17;14
24012;PMS7003;12220;50.194;18.948;2022-07-23T10:57:47;13;13;11
24012;PMS7003;12220;50.194;18.948;2022-07-23T11:04:47;17;17;13
24012;PMS7003;12220;50.194;18.948;2022-07-23T11:11:17;18;18;16
24012;PMS7003;12220;50.194;18.948;2022-07-23T11:13:25;18;18;15
24012;PMS7003;12220;50.194;18.948;2022-07-23T11:15:38;16;16;14
24012;PMS7003;12220;50.194;18.948;2022-07-23T11:22:33;14;14;12
24012;PMS7003;12220;50.194;18.948;2022-07-23T11:24:27;13;13;12
24012;PMS7003;12220;50.194;18.948;2022-07-23T11:28:44;16;16;12
24012;PMS7003;12220;50.194;18.948;2022-07-23T11:30:45;15;14;12
24012;PMS7003;12220;50.194;18.948;2022-07-23T11:32:48;8;8;7
24012;PMS7003;12220;50.194;18.948;2022-07-23T11:34:50;12;12;9
24012;PMS7003;12220;50.194;18.948;2022-07-23T11:36:53;13;11;9
24012;PMS7003;12220;50.194;18.948;2022-07-23T11:38:57;13;12;11
24012;PMS7003;12220;50.194;18.948;2022-07-23T11:41:03;11;11;10
24012;PMS7003;12220;50.194;18.948;2022-07-23T11:43:05;11;10;8
24012;PMS7003;12220;50.194;18.948;2022-07-23T11:45:09;18;16;12
24012;PMS7003;12220;50.194;18.948;2022-07-23T11:47:10;10;10;8
24012;PMS7003;12220;50.194;18.948;2022-07-23T11:49:18;15;13;12
24012;PMS7003;12220;50.194;18.948;2022-07-23T11:53:33;13;13;12
24012;PMS7003;12220;50.194;18.948;2022-07-23T11:55:35;18;16;12
24012;PMS7003;12220;50.194;18.948;2022-07-23T11:57:40;12;12;9
24012;PMS7003;12220;50.194;18.948;2022-07-23T11:59:42;13;13;10
24012;PMS7003;12220;50.194;18.948;2022-07-23T12:03:59;18;18;14
24012;PMS7003;12220;50.194;18.948;2022-07-23T12:06:00;14;14;12
24012;PMS7003;12220;50.194;18.948;2022-07-23T12:08:10;17;15;12
24012;PMS7003;12220;50.194;18.948;2022-07-23T12:10:18;13;12;9
24012;PMS7003;12220;50.194;18.948;2022-07-23T12:12:21;14;14;12
24012;PMS7003;12220;50.194;18.948;2022-07-23T12:14:26;13;13;12
24012;PMS7003;12220;50.194;18.948;2022-07-23T12:16:28;16;16;11
24012;PMS7003;12220;50.194;18.948;2022-07-23T12:18:32;13;13;13
24012;PMS7003;12220;50.194;18.948;2022-07-23T12:20:53;14;14;12
24012;PMS7003;12220;50.194;18.948;2022-07-23T12:22:46;11;11;10
24012;PMS7003;12220;50.194;18.948;2022-07-23T12:29:33;11;11;9
24012;PMS7003;12220;50.194;18.948;2022-07-23T12:31:45;11;10;9
24012;PMS7003;12220;50.194;18.948;2022-07-23T12:33:46;15;14;13
24012;PMS7003;12220;50.194;18.948;2022-07-23T12:35:52;13;13;10
24012;PMS7003;12220;50.194;18.948;2022-07-23T12:37:59;9;9;5
24012;PMS7003;12220;50.194;18.948;2022-07-23T12:42:27;10;10;9
24012;PMS7003;12220;50.194;18.948;2022-07-23T12:45:02;12;10;9
24012;PMS7003;12220;50.194;18.948;2022-07-23T12:47:04;9;9;7
24012;PMS7003;12220;50.194;18.948;2022-07-23T12:49:06;10;10;9
24012;PMS7003;12220;50.194;18.948;2022-07-23T12:51:12;10;10;9
24012;PMS7003;12220;50.194;18.948;2022-07-23T12:53:17;10;10;8
24012;PMS7003;12220;50.194;18.948;2022-07-23T12:59:42;8;8;6
24012;PMS7003;12220;50.194;18.948;2022-07-23T13:01:44;7;7;7
24012;PMS7003;12220;50.194;18.948;2022-07-23T13:06:09;6;6;5
24012;PMS7003;12220;50.194;18.948;2022-07-23T13:08:12;7;7;6
24012;PMS7003;12220;50.194;18.948;2022-07-23T13:10:13;6;6;5
24012;PMS7003;12220;50.194;18.948;2022-07-23T13:12:14;6;6;6
24012;PMS7003;12220;50.194;18.948;2022-07-23T13:14:25;7;6;5
24012;PMS7003;12220;50.194;18.948;2022-07-23T13:16:27;11;10;9
24012;PMS7003;12220;50.194;18.948;2022-07-23T13:18:29;9;9;7
24012;PMS7003;12220;50.194;18.948;2022-07-23T13:20:31;7;7;6
24012;PMS7003;12220;50.194;18.948;2022-07-23T13:22:38;10;10;8
24012;PMS7003;12220;50.194;18.948;2022-07-23T13:24:39;9;9;7
24012;PMS7003;12220;50.194;18.948;2022-07-23T13:26:40;12;11;9
24012;PMS7003;12220;50.194;18.948;2022-07-23T13:28:42;7;7;6
24012;PMS7003;12220;50.194;18.948;2022-07-23T13:30:52;6;6;5
24012;PMS7003;12220;50.194;18.948;2022-07-23T13:32:54;7;7;6
24012;PMS7003;12220;50.194;18.948;2022-07-23T13:34:55;13;13;10
24012;PMS7003;12220;50.194;18.948;2022-07-23T13:37:01;13;12;8
24012;PMS7003;12220;50.194;18.948;2022-07-23T13:39:07;10;10;7
24012;PMS7003;12220;50.194;18.948;2022-07-23T13:41:09;9;9;8
24012;PMS7003;12220;50.194;18.948;2022-07-23T13:43:11;8;8;6
24012;PMS7003;12220;50.194;18.948;2022-07-23T13:45:14;11;11;10
24012;PMS7003;12220;50.194;18.948;2022-07-23T13:47:22;11;11;8
24012;PMS7003;12220;50.194;18.948;2022-07-23T13:49:24;16;16;14
24012;PMS7003;12220;50.194;18.948;2022-07-23T13:51:25;11;11;10
24012;PMS7003;12220;50.194;18.948;2022-07-23T13:53:27;10;10;6
24012;PMS7003;12220;50.194;18.948;2022-07-23T13:55:37;10;10;5
24012;PMS7003;12220;50.194;18.948;2022-07-23T13:57:39;8;8;7
24012;PMS7003;12220;50.194;18.948;2022-07-23T13:59:40;13;13;10
24012;PMS7003;12220;50.194;18.948;2022-07-23T14:01:43;14;14;12
24012;PMS7003;12220;50.194;18.948;2022-07-23T14:03:51;12;12;10
24012;PMS7003;12220;50.194;18.948;2022-07-23T14:05:56;17;16;14
24012;PMS7003;12220;50.194;18.948;2022-07-23T14:07:57;9;9;8
24012;PMS7003;12220;50.194;18.948;2022-07-23T14:09:58;14;14;12
24012;PMS7003;12220;50.194;18.948;2022-07-23T14:12:06;13;13;11